sensor_id;sensor_type;location;lat;lon;timestamp;pressure;altitude;pressure_sealevel;temperature;humidity
37778;BME280;23615;51.506;7.678;2023-02-10T00:01:42;101894.84;;;3.14;94.07
37778;BME280;23615;51.506;7.678;2023-02-10T00:04:10;101904.31;;;3.16;94.30
37778;BME280;23615;51.506;7.678;2023-02-10T00:06:36;101906.06;;;3.27;93.80
37778;BME280;23615;51.506;7.678;2023-02-10T00:09:02;101902.13;;;3.21;93.95
37778;BME280;23615;51.506;7.678;2023-02-10T00:11:28;101909.91;;;3.23;93.99
37778;BME280;23615;51.506;7.678;2023-02-10T00:14:16;101907.41;;;3.21;94.10
37778;BME280;23615;51.506;7.678;2023-02-10T00:16:42;101905.59;;;3.22;94.01
37778;BME280;23615;51.506;7.678;2023-02-10T00:19:07;101909.78;;;3.24;93.60
37778;BME280;23615;51.506;7.678;2023-02-10T00:21:32;101916.22;;;3.31;93.69
37778;BME280;23615;51.506;7.678;2023-02-10T00:23:58;101914.72;;;3.38;94.22
37778;BME280;23615;51.506;7.678;2023-02-10T00:26:23;101910.28;;;3.39;93.56
37778;BME280;23615;51.506;7.678;2023-02-10T00:28:48;101905.94;;;3.59;93.99
37778;BME280;23615;51.506;7.678;2023-02-10T00:31:15;101905.28;;;3.66;93.39
37778;BME280;23615;51.506;7.678;2023-02-10T00:33:44;101902.97;;;3.73;92.57
37778;BME280;23615;51.506;7.678;2023-02-10T00:36:11;101898.09;;;3.78;93.19
37778;BME280;23615;51.506;7.678;2023-02-10T00:38:37;101901.16;;;3.83;92.62
37778;BME280;23615;51.506;7.678;2023-02-10T00:41:08;101890.59;;;3.83;92.42
37778;BME280;23615;51.506;7.678;2023-02-10T00:43:34;101890.94;;;3.90;92.33
37778;BME280;23615;51.506;7.678;2023-02-10T00:46:01;101893.78;;;3.77;92.36
37778;BME280;23615;51.506;7.678;2023-02-10T00:48:26;101896.88;;;3.82;93.20
37778;BME280;23615;51.506;7.678;2023-02-10T00:50:52;101892.16;;;3.86;92.87
37778;BME280;23615;51.506;7.678;2023-02-10T00:53:17;101892.41;;;3.83;92.83
37778;BME280;23615;51.506;7.678;2023-02-10T00:55:42;101901.00;;;3.75;93.63
37778;BME280;23615;51.506;7.678;2023-02-10T00:58:07;101903.34;;;3.68;93.11
37778;BME280;23615;51.506;7.678;2023-02-10T01:00:33;101899.47;;;3.72;93.62
37778;BME280;23615;51.506;7.678;2023-02-10T01:02:58;101894.53;;;3.58;93.57
37778;BME280;23615;51.506;7.678;2023-02-10T01:05:23;101901.06;;;3.54;94.33
37778;BME280;23615;51.506;7.678;2023-02-10T01:07:48;101902.53;;;3.78;93.62
37778;BME280;23615;51.506;7.678;2023-02-10T01:10:14;101902.50;;;3.68;93.67
37778;BME280;23615;51.506;7.678;2023-02-10T01:12:39;101903.81;;;3.83;92.78
37778;BME280;23615;51.506;7.678;2023-02-10T01:15:04;101908.25;;;3.73;93.22
37778;BME280;23615;51.506;7.678;2023-02-10T01:17:30;101921.59;;;3.81;93.45
37778;BME280;23615;51.506;7.678;2023-02-10T01:19:55;101918.81;;;3.83;92.86
37778;BME280;23615;51.506;7.678;2023-02-10T01:22:21;101916.50;;;3.59;94.11
37778;BME280;23615;51.506;7.678;2023-02-10T01:24:46;101918.41;;;3.87;93.15
37778;BME280;23615;51.506;7.678;2023-02-10T01:27:11;101915.63;;;3.79;92.95
37778;BME280;23615;51.506;7.678;2023-02-10T01:29:37;101918.28;;;3.89;93.02
37778;BME280;23615;51.506;7.678;2023-02-10T01:32:02;101918.41;;;3.87;92.69
37778;BME280;23615;51.506;7.678;2023-02-10T01:34:27;101926.22;;;3.89;93.56
37778;BME280;23615;51.506;7.678;2023-02-10T01:36:53;101926.72;;;3.83;93.49
37778;BME280;23615;51.506;7.678;2023-02-10T01:39:18;101926.75;;;3.92;93.51
37778;BME280;23615;51.506;7.678;2023-02-10T01:41:43;101926.38;;;3.97;92.75
37778;BME280;23615;51.506;7.678;2023-02-10T01:46:47;101921.19;;;3.55;94.76
37778;BME280;23615;51.506;7.678;2023-02-10T01:49:16;101930.72;;;3.47;93.73
37778;BME280;23615;51.506;7.678;2023-02-10T01:51:47;101926.38;;;3.36;94.26
37778;BME280;23615;51.506;7.678;2023-02-10T01:54:16;101930.22;;;3.32;94.64
37778;BME280;23615;51.506;7.678;2023-02-10T01:56:42;101934.78;;;3.30;94.73
37778;BME280;23615;51.506;7.678;2023-02-10T01:59:07;101931.50;;;3.37;94.31
37778;BME280;23615;51.506;7.678;2023-02-10T02:01:33;101933.72;;;3.32;94.51
37778;BME280;23615;51.506;7.678;2023-02-10T02:03:58;101945.47;;;3.28;94.03
37778;BME280;23615;51.506;7.678;2023-02-10T02:06:25;101948.63;;;3.22;94.40
37778;BME280;23615;51.506;7.678;2023-02-10T02:08:50;101944.31;;;3.21;94.33
37778;BME280;23615;51.506;7.678;2023-02-10T02:14:28;101944.97;;;3.34;94.73
37778;BME280;23615;51.506;7.678;2023-02-10T02:17:12;101953.00;;;3.33;94.07
37778;BME280;23615;51.506;7.678;2023-02-10T02:25:32;101937.84;;;3.25;94.97
37778;BME280;23615;51.506;7.678;2023-02-10T02:28:21;101950.19;;;3.25;94.56
37778;BME280;23615;51.506;7.678;2023-02-10T02:33:32;101948.63;;;3.22;95.27
37778;BME280;23615;51.506;7.678;2023-02-10T02:36:39;101964.94;;;3.27;94.83
37778;BME280;23615;51.506;7.678;2023-02-10T02:39:05;101962.66;;;3.44;94.62
37778;BME280;23615;51.506;7.678;2023-02-10T02:41:32;101958.16;;;3.34;94.77
37778;BME280;23615;51.506;7.678;2023-02-10T02:43:59;101965.50;;;3.52;94.68
37778;BME280;23615;51.506;7.678;2023-02-10T02:51:51;101962.19;;;3.38;95.80
37778;BME280;23615;51.506;7.678;2023-02-10T02:54:37;101966.44;;;3.51;95.42
37778;BME280;23615;51.506;7.678;2023-02-10T02:57:29;101966.81;;;3.46;95.71
37778;BME280;23615;51.506;7.678;2023-02-10T03:00:03;101968.50;;;3.47;96.39
37778;BME280;23615;51.506;7.678;2023-02-10T03:02:31;101965.88;;;3.26;96.03
37778;BME280;23615;51.506;7.678;2023-02-10T03:04:58;101971.84;;;3.28;96.14
37778;BME280;23615;51.506;7.678;2023-02-10T03:07:24;101969.16;;;3.39;96.75
37778;BME280;23615;51.506;7.678;2023-02-10T03:09:50;101960.84;;;3.23;96.79
37778;BME280;23615;51.506;7.678;2023-02-10T03:12:15;101957.63;;;3.41;96.70
37778;BME280;23615;51.506;7.678;2023-02-10T03:14:40;101957.63;;;3.20;97.01
37778;BME280;23615;51.506;7.678;2023-02-10T03:17:06;101957.06;;;3.16;97.23
37778;BME280;23615;51.506;7.678;2023-02-10T03:19:31;101956.47;;;3.13;97.21
37778;BME280;23615;51.506;7.678;2023-02-10T03:21:56;101957.44;;;3.12;97.25
37778;BME280;23615;51.506;7.678;2023-02-10T03:24:22;101958.06;;;3.04;98.03
37778;BME280;23615;51.506;7.678;2023-02-10T03:26:47;101953.03;;;3.01;97.87
37778;BME280;23615;51.506;7.678;2023-02-10T03:29:14;101945.00;;;3.03;97.77
37778;BME280;23615;51.506;7.678;2023-02-10T03:31:39;101943.34;;;3.01;97.93
37778;BME280;23615;51.506;7.678;2023-02-10T03:34:05;101944.16;;;3.02;97.60
37778;BME280;23615;51.506;7.678;2023-02-10T03:36:30;101931.94;;;3.01;97.71
37778;BME280;23615;51.506;7.678;2023-02-10T03:38:58;101936.25;;;3.02;97.59
37778;BME280;23615;51.506;7.678;2023-02-10T03:41:23;101945.66;;;2.95;97.25
37778;BME280;23615;51.506;7.678;2023-02-10T03:43:49;101940.41;;;2.84;97.00
37778;BME280;23615;51.506;7.678;2023-02-10T03:46:14;101941.66;;;2.80;97.29
37778;BME280;23615;51.506;7.678;2023-02-10T03:48:39;101932.22;;;2.98;96.77
37778;BME280;23615;51.506;7.678;2023-02-10T03:51:06;101930.78;;;2.94;96.92
37778;BME280;23615;51.506;7.678;2023-02-10T03:53:32;101930.91;;;2.72;96.82
37778;BME280;23615;51.506;7.678;2023-02-10T03:55:58;101933.28;;;2.75;97.56
37778;BME280;23615;51.506;7.678;2023-02-10T03:58:23;101930.31;;;2.68;98.32
37778;BME280;23615;51.506;7.678;2023-02-10T04:00:48;101941.69;;;2.69;97.98
37778;BME280;23615;51.506;7.678;2023-02-10T04:03:14;101943.63;;;2.55;98.60
37778;BME280;23615;51.506;7.678;2023-02-10T04:05:39;101945.81;;;2.50;98.42
37778;BME280;23615;51.506;7.678;2023-02-10T04:08:05;101939.72;;;2.50;99.44
37778;BME280;23615;51.506;7.678;2023-02-10T04:10:31;101946.72;;;2.72;98.27
37778;BME280;23615;51.506;7.678;2023-02-10T04:12:56;101949.91;;;2.75;98.35
37778;BME280;23615;51.506;7.678;2023-02-10T04:15:21;101950.31;;;2.71;98.03
37778;BME280;23615;51.506;7.678;2023-02-10T04:17:47;101948.16;;;2.64;98.01
37778;BME280;23615;51.506;7.678;2023-02-10T04:20:13;101952.13;;;2.59;98.53
37778;BME280;23615;51.506;7.678;2023-02-10T04:22:38;101954.78;;;2.59;98.55
37778;BME280;23615;51.506;7.678;2023-02-10T04:25:04;101956.00;;;2.55;98.56
37778;BME280;23615;51.506;7.678;2023-02-10T04:27:29;101959.91;;;2.60;97.99
37778;BME280;23615;51.506;7.678;2023-02-10T04:29:55;101963.53;;;2.48;98.24
37778;BME280;23615;51.506;7.678;2023-02-10T04:32:21;101959.22;;;2.47;98.79
37778;BME280;23615;51.506;7.678;2023-02-10T04:34:46;101959.38;;;2.46;98.42
37778;BME280;23615;51.506;7.678;2023-02-10T04:37:11;101955.63;;;2.48;99.11
37778;BME280;23615;51.506;7.678;2023-02-10T04:39:37;101960.06;;;2.48;98.84
37778;BME280;23615;51.506;7.678;2023-02-10T04:42:02;101967.75;;;2.40;98.84
37778;BME280;23615;51.506;7.678;2023-02-10T04:44:27;101963.31;;;2.40;98.76
37778;BME280;23615;51.506;7.678;2023-02-10T04:46:53;101961.53;;;2.41;98.61
37778;BME280;23615;51.506;7.678;2023-02-10T04:49:18;101954.13;;;2.35;99.00
37778;BME280;23615;51.506;7.678;2023-02-10T04:51:43;101952.47;;;2.22;98.99
37778;BME280;23615;51.506;7.678;2023-02-10T04:54:09;101949.00;;;2.11;99.78
37778;BME280;23615;51.506;7.678;2023-02-10T04:56:34;101951.03;;;2.18;99.68
37778;BME280;23615;51.506;7.678;2023-02-10T04:59:00;101955.47;;;2.18;99.57
37778;BME280;23615;51.506;7.678;2023-02-10T05:01:25;101953.91;;;2.27;99.26
37778;BME280;23615;51.506;7.678;2023-02-10T05:03:50;101957.00;;;2.32;99.17
37778;BME280;23615;51.506;7.678;2023-02-10T05:06:16;101948.50;;;2.28;99.05
37778;BME280;23615;51.506;7.678;2023-02-10T05:08:42;101950.56;;;2.13;99.74
37778;BME280;23615;51.506;7.678;2023-02-10T05:11:11;101954.84;;;2.25;99.85
37778;BME280;23615;51.506;7.678;2023-02-10T05:13:36;101957.25;;;2.06;100.00
37778;BME280;23615;51.506;7.678;2023-02-10T05:16:03;101952.50;;;2.00;100.00
37778;BME280;23615;51.506;7.678;2023-02-10T05:18:32;101960.00;;;2.16;100.00
37778;BME280;23615;51.506;7.678;2023-02-10T05:20:58;101958.22;;;1.94;100.00
37778;BME280;23615;51.506;7.678;2023-02-10T05:23:25;101966.34;;;2.13;100.00
37778;BME280;23615;51.506;7.678;2023-02-10T05:25:51;101968.53;;;2.08;100.00
37778;BME280;23615;51.506;7.678;2023-02-10T05:28:16;101962.88;;;2.13;100.00
37778;BME280;23615;51.506;7.678;2023-02-10T05:30:41;101971.16;;;2.08;100.00
37778;BME280;23615;51.506;7.678;2023-02-10T05:33:07;101970.44;;;2.06;100.00
37778;BME280;23615;51.506;7.678;2023-02-10T05:35:32;101978.56;;;2.25;99.63
37778;BME280;23615;51.506;7.678;2023-02-10T05:37:57;101979.38;;;1.93;100.00
37778;BME280;23615;51.506;7.678;2023-02-10T05:40:23;101984.66;;;1.93;100.00
37778;BME280;23615;51.506;7.678;2023-02-10T05:42:49;101989.06;;;1.92;100.00
37778;BME280;23615;51.506;7.678;2023-02-10T05:45:14;101995.31;;;1.91;100.00
37778;BME280;23615;51.506;7.678;2023-02-10T05:47:40;101998.44;;;1.96;100.00
37778;BME280;23615;51.506;7.678;2023-02-10T05:50:06;102008.56;;;2.01;99.95
37778;BME280;23615;51.506;7.678;2023-02-10T05:52:31;102009.06;;;1.95;100.00
37778;BME280;23615;51.506;7.678;2023-02-10T05:54:56;102016.38;;;2.02;99.86
37778;BME280;23615;51.506;7.678;2023-02-10T05:57:21;102021.66;;;1.91;100.00
37778;BME280;23615;51.506;7.678;2023-02-10T05:59:47;102010.84;;;1.94;100.00
37778;BME280;23615;51.506;7.678;2023-02-10T06:02:12;102014.94;;;1.98;99.67
37778;BME280;23615;51.506;7.678;2023-02-10T06:04:37;102016.97;;;2.17;99.38
37778;BME280;23615;51.506;7.678;2023-02-10T06:07:03;102015.91;;;1.97;98.74
37778;BME280;23615;51.506;7.678;2023-02-10T06:09:28;102018.28;;;1.89;98.77
37778;BME280;23615;51.506;7.678;2023-02-10T06:11:53;102019.81;;;1.92;99.18
37778;BME280;23615;51.506;7.678;2023-02-10T06:14:19;102028.19;;;1.85;99.54
37778;BME280;23615;51.506;7.678;2023-02-10T06:16:44;102024.97;;;1.82;99.81
37778;BME280;23615;51.506;7.678;2023-02-10T06:19:10;102025.22;;;1.79;100.00
37778;BME280;23615;51.506;7.678;2023-02-10T06:21:35;102023.31;;;1.81;100.00
37778;BME280;23615;51.506;7.678;2023-02-10T06:24:01;102025.09;;;1.80;100.00
37778;BME280;23615;51.506;7.678;2023-02-10T06:26:26;102030.25;;;1.82;99.97
37778;BME280;23615;51.506;7.678;2023-02-10T06:28:53;102032.50;;;1.75;99.96
37778;BME280;23615;51.506;7.678;2023-02-10T06:31:18;102027.91;;;1.66;99.57
37778;BME280;23615;51.506;7.678;2023-02-10T06:33:43;102032.22;;;1.67;99.93
37778;BME280;23615;51.506;7.678;2023-02-10T06:36:09;102030.22;;;1.71;99.90
37778;BME280;23615;51.506;7.678;2023-02-10T06:38:36;102035.22;;;1.74;99.93
37778;BME280;23615;51.506;7.678;2023-02-10T06:41:03;102044.22;;;1.71;99.38
37778;BME280;23615;51.506;7.678;2023-02-10T06:43:28;102046.84;;;1.71;99.39
37778;BME280;23615;51.506;7.678;2023-02-10T06:45:54;102042.06;;;1.76;99.33
37778;BME280;23615;51.506;7.678;2023-02-10T06:48:19;102050.31;;;1.72;99.11
37778;BME280;23615;51.506;7.678;2023-02-10T06:50:44;102056.66;;;1.80;98.74
37778;BME280;23615;51.506;7.678;2023-02-10T06:53:10;102053.06;;;1.70;98.94
37778;BME280;23615;51.506;7.678;2023-02-10T06:55:35;102061.91;;;1.69;99.20
37778;BME280;23615;51.506;7.678;2023-02-10T06:58:01;102067.63;;;1.63;99.58
37778;BME280;23615;51.506;7.678;2023-02-10T07:00:27;102068.59;;;1.62;99.61
37778;BME280;23615;51.506;7.678;2023-02-10T07:02:53;102075.38;;;1.65;99.69
37778;BME280;23615;51.506;7.678;2023-02-10T07:05:18;102068.97;;;1.69;99.58
37778;BME280;23615;51.506;7.678;2023-02-10T07:07:44;102075.16;;;1.68;99.57
37778;BME280;23615;51.506;7.678;2023-02-10T07:10:10;102066.53;;;1.66;99.72
37778;BME280;23615;51.506;7.678;2023-02-10T07:12:36;102070.53;;;1.71;99.81
37778;BME280;23615;51.506;7.678;2023-02-10T07:15:01;102070.97;;;1.65;99.47
37778;BME280;23615;51.506;7.678;2023-02-10T07:17:27;102071.09;;;1.64;99.29
37778;BME280;23615;51.506;7.678;2023-02-10T07:19:52;102071.22;;;1.62;99.62
37778;BME280;23615;51.506;7.678;2023-02-10T07:22:17;102069.28;;;1.64;99.67
37778;BME280;23615;51.506;7.678;2023-02-10T07:24:42;102071.91;;;1.64;99.82
37778;BME280;23615;51.506;7.678;2023-02-10T07:27:08;102061.19;;;1.67;99.81
37778;BME280;23615;51.506;7.678;2023-02-10T07:29:33;102062.97;;;1.67;99.58
37778;BME280;23615;51.506;7.678;2023-02-10T07:31:58;102062.03;;;1.79;99.76
37778;BME280;23615;51.506;7.678;2023-02-10T07:34:24;102062.63;;;1.82;99.12
37778;BME280;23615;51.506;7.678;2023-02-10T07:36:50;102059.59;;;1.65;99.50
37778;BME280;23615;51.506;7.678;2023-02-10T07:39:21;102064.66;;;1.68;99.64
37778;BME280;23615;51.506;7.678;2023-02-10T07:41:47;102059.16;;;1.71;99.98
37778;BME280;23615;51.506;7.678;2023-02-10T07:44:12;102065.00;;;1.74;99.58
37778;BME280;23615;51.506;7.678;2023-02-10T07:46:37;102062.63;;;1.71;99.89
37778;BME280;23615;51.506;7.678;2023-02-10T07:49:03;102069.44;;;1.74;99.76
37778;BME280;23615;51.506;7.678;2023-02-10T07:51:28;102073.03;;;1.84;100.00
37778;BME280;23615;51.506;7.678;2023-02-10T07:53:53;102066.47;;;1.78;99.30
37778;BME280;23615;51.506;7.678;2023-02-10T07:56:19;102069.09;;;1.78;99.53
37778;BME280;23615;51.506;7.678;2023-02-10T07:58:44;102069.94;;;1.79;99.40
37778;BME280;23615;51.506;7.678;2023-02-10T08:01:10;102069.94;;;1.79;99.63
37778;BME280;23615;51.506;7.678;2023-02-10T08:03:36;102072.69;;;1.77;99.57
37778;BME280;23615;51.506;7.678;2023-02-10T08:33:41;102078.59;;;2.14;99.75
37778;BME280;23615;51.506;7.678;2023-02-10T08:36:47;102084.22;;;2.21;100.00
37778;BME280;23615;51.506;7.678;2023-02-10T09:11:24;102110.34;;;2.35;100.00
37778;BME280;23615;51.506;7.678;2023-02-10T09:26:35;102123.06;;;2.63;100.00
37778;BME280;23615;51.506;7.678;2023-02-10T10:10:20;102149.38;;;3.40;98.45
37778;BME280;23615;51.506;7.678;2023-02-10T10:12:49;102151.16;;;3.51;97.78
37778;BME280;23615;51.506;7.678;2023-02-10T10:15:15;102147.31;;;3.55;97.47
37778;BME280;23615;51.506;7.678;2023-02-10T10:18:15;102136.59;;;3.35;98.33
37778;BME280;23615;51.506;7.678;2023-02-10T10:21:01;102137.56;;;3.23;98.63
37778;BME280;23615;51.506;7.678;2023-02-10T10:23:37;102130.47;;;3.35;97.87
37778;BME280;23615;51.506;7.678;2023-02-10T10:26:19;102134.41;;;3.72;96.72
37778;BME280;23615;51.506;7.678;2023-02-10T10:29:10;102123.06;;;3.61;97.67
37778;BME280;23615;51.506;7.678;2023-02-10T10:31:41;102126.25;;;3.64;97.44
37778;BME280;23615;51.506;7.678;2023-02-10T10:34:13;102135.69;;;3.78;97.27
37778;BME280;23615;51.506;7.678;2023-02-10T10:36:48;102127.97;;;3.86;96.29
37778;BME280;23615;51.506;7.678;2023-02-10T10:39:31;102125.63;;;3.93;96.61
37778;BME280;23615;51.506;7.678;2023-02-10T10:42:02;102129.47;;;4.00;95.52
37778;BME280;23615;51.506;7.678;2023-02-10T10:44:30;102122.50;;;3.99;94.11
37778;BME280;23615;51.506;7.678;2023-02-10T10:47:06;102131.34;;;4.09;93.68
37778;BME280;23615;51.506;7.678;2023-02-10T10:49:36;102130.22;;;4.11;93.28
37778;BME280;23615;51.506;7.678;2023-02-10T10:52:08;102123.31;;;4.20;93.13
37778;BME280;23615;51.506;7.678;2023-02-10T10:54:43;102108.88;;;4.24;93.70
37778;BME280;23615;51.506;7.678;2023-02-10T10:57:10;102110.19;;;4.39;93.98
37778;BME280;23615;51.506;7.678;2023-02-10T10:59:46;102101.53;;;4.28;92.82
37778;BME280;23615;51.506;7.678;2023-02-10T11:02:19;102099.59;;;4.60;91.57
37778;BME280;23615;51.506;7.678;2023-02-10T11:04:45;102111.59;;;4.64;91.61
37778;BME280;23615;51.506;7.678;2023-02-10T11:07:18;102095.88;;;4.72;90.49
37778;BME280;23615;51.506;7.678;2023-02-10T11:09:54;102098.25;;;4.75;90.68
37778;BME280;23615;51.506;7.678;2023-02-10T11:12:24;102096.94;;;4.60;91.21
37778;BME280;23615;51.506;7.678;2023-02-10T11:14:52;102096.41;;;4.66;90.81
37778;BME280;23615;51.506;7.678;2023-02-10T11:17:31;102092.28;;;4.83;90.13
37778;BME280;23615;51.506;7.678;2023-02-10T11:22:35;102089.53;;;5.04;89.21
37778;BME280;23615;51.506;7.678;2023-02-10T11:25:17;102092.06;;;5.15;88.66
37778;BME280;23615;51.506;7.678;2023-02-10T11:27:54;102091.78;;;5.08;89.35
37778;BME280;23615;51.506;7.678;2023-02-10T11:30:30;102084.13;;;5.15;89.52
37778;BME280;23615;51.506;7.678;2023-02-10T11:32:56;102079.13;;;5.31;88.96
37778;BME280;23615;51.506;7.678;2023-02-10T11:35:23;102077.31;;;5.41;89.49
37778;BME280;23615;51.506;7.678;2023-02-10T11:37:53;102075.06;;;5.46;88.62
37778;BME280;23615;51.506;7.678;2023-02-10T11:40:27;102076.34;;;5.61;86.64
37778;BME280;23615;51.506;7.678;2023-02-10T11:42:56;102074.22;;;5.65;86.21
37778;BME280;23615;51.506;7.678;2023-02-10T11:45:30;102062.00;;;5.54;86.27
37778;BME280;23615;51.506;7.678;2023-02-10T11:48:18;102062.41;;;5.69;86.25
37778;BME280;23615;51.506;7.678;2023-02-10T11:50:44;102066.16;;;5.47;86.39
37778;BME280;23615;51.506;7.678;2023-02-10T11:53:24;102072.16;;;5.40;87.29
37778;BME280;23615;51.506;7.678;2023-02-10T11:55:59;102063.25;;;5.41;87.61
37778;BME280;23615;51.506;7.678;2023-02-10T12:01:38;102066.44;;;5.73;85.83
37778;BME280;23615;51.506;7.678;2023-02-10T12:07:05;102074.06;;;5.86;85.12
37778;BME280;23615;51.506;7.678;2023-02-10T12:15:37;102068.53;;;5.89;85.64
37778;BME280;23615;51.506;7.678;2023-02-10T12:21:18;102064.31;;;6.06;85.12
37778;BME280;23615;51.506;7.678;2023-02-10T12:27:45;102052.66;;;5.60;85.45
37778;BME280;23615;51.506;7.678;2023-02-10T12:36:09;102029.88;;;5.86;85.12
37778;BME280;23615;51.506;7.678;2023-02-10T12:41:25;102021.25;;;5.94;85.21
37778;BME280;23615;51.506;7.678;2023-02-10T12:44:02;102021.19;;;6.13;85.26
37778;BME280;23615;51.506;7.678;2023-02-10T12:46:42;102020.91;;;6.16;84.24
37778;BME280;23615;51.506;7.678;2023-02-10T12:52:25;102007.13;;;6.03;85.45
37778;BME280;23615;51.506;7.678;2023-02-10T12:55:02;102016.06;;;6.02;85.60
37778;BME280;23615;51.506;7.678;2023-02-10T13:00:18;102028.31;;;6.40;84.82
37778;BME280;23615;51.506;7.678;2023-02-10T13:02:49;102028.66;;;6.27;85.30
37778;BME280;23615;51.506;7.678;2023-02-10T13:05:18;102030.59;;;6.35;84.25
37778;BME280;23615;51.506;7.678;2023-02-10T13:07:55;102024.44;;;6.34;84.95
37778;BME280;23615;51.506;7.678;2023-02-10T13:10:44;102014.53;;;6.64;84.34
37778;BME280;23615;51.506;7.678;2023-02-10T13:13:28;102007.66;;;6.44;84.44
37778;BME280;23615;51.506;7.678;2023-02-10T13:16:12;101997.28;;;6.50;84.08
37778;BME280;23615;51.506;7.678;2023-02-10T13:19:07;101995.72;;;6.30;84.46
37778;BME280;23615;51.506;7.678;2023-02-10T13:22:02;101995.69;;;6.57;83.63
37778;BME280;23615;51.506;7.678;2023-02-10T13:25:14;101993.19;;;6.56;81.22
37778;BME280;23615;51.506;7.678;2023-02-10T13:27:54;101988.28;;;6.61;80.95
37778;BME280;23615;51.506;7.678;2023-02-10T13:33:39;101989.06;;;6.71;80.02
37778;BME280;23615;51.506;7.678;2023-02-10T13:36:22;101991.41;;;6.74;80.62
37778;BME280;23615;51.506;7.678;2023-02-10T13:39:05;101997.78;;;6.63;80.22
37778;BME280;23615;51.506;7.678;2023-02-10T13:41:35;101992.69;;;6.70;80.84
37778;BME280;23615;51.506;7.678;2023-02-10T13:44:25;101988.91;;;6.72;81.65
37778;BME280;23615;51.506;7.678;2023-02-10T13:49:58;101981.56;;;7.02;79.45
37778;BME280;23615;51.506;7.678;2023-02-10T13:52:30;101971.78;;;7.02;78.75
37778;BME280;23615;51.506;7.678;2023-02-10T13:55:00;101968.97;;;6.86;79.24
37778;BME280;23615;51.506;7.678;2023-02-10T13:57:36;101969.19;;;6.93;78.41
37778;BME280;23615;51.506;7.678;2023-02-10T14:00:18;101970.56;;;6.97;78.73
37778;BME280;23615;51.506;7.678;2023-02-10T14:02:58;101957.25;;;6.71;78.87
37778;BME280;23615;51.506;7.678;2023-02-10T14:05:30;101968.63;;;6.99;78.04
37778;BME280;23615;51.506;7.678;2023-02-10T14:08:11;101949.72;;;6.84;78.22
37778;BME280;23615;51.506;7.678;2023-02-10T14:10:40;101952.22;;;6.86;78.65
37778;BME280;23615;51.506;7.678;2023-02-10T14:13:21;101952.00;;;6.79;78.18
37778;BME280;23615;51.506;7.678;2023-02-10T14:16:06;101937.22;;;6.59;79.85
37778;BME280;23615;51.506;7.678;2023-02-10T14:19:02;101936.22;;;6.95;77.57
37778;BME280;23615;51.506;7.678;2023-02-10T14:21:41;101941.22;;;7.16;77.40
37778;BME280;23615;51.506;7.678;2023-02-10T14:24:14;101940.38;;;7.16;76.96
37778;BME280;23615;51.506;7.678;2023-02-10T14:26:49;101951.16;;;7.14;76.74
37778;BME280;23615;51.506;7.678;2023-02-10T14:29:18;101947.13;;;7.28;76.44
37778;BME280;23615;51.506;7.678;2023-02-10T14:31:57;101946.53;;;7.16;76.70
37778;BME280;23615;51.506;7.678;2023-02-10T14:34:29;101948.66;;;7.12;76.94
37778;BME280;23615;51.506;7.678;2023-02-10T14:37:16;101941.44;;;7.23;75.94
37778;BME280;23615;51.506;7.678;2023-02-10T14:39:53;101943.34;;;7.38;76.75
37778;BME280;23615;51.506;7.678;2023-02-10T14:42:20;101936.63;;;7.44;77.58
37778;BME280;23615;51.506;7.678;2023-02-10T14:44:50;101939.56;;;7.67;73.47
37778;BME280;23615;51.506;7.678;2023-02-10T14:47:19;101944.00;;;7.58;73.04
37778;BME280;23615;51.506;7.678;2023-02-10T14:49:52;101935.28;;;7.22;74.10
37778;BME280;23615;51.506;7.678;2023-02-10T14:52:26;101923.16;;;7.20;73.87
37778;BME280;23615;51.506;7.678;2023-02-10T14:54:51;101919.41;;;6.87;75.21
37778;BME280;23615;51.506;7.678;2023-02-10T14:57:19;101912.41;;;7.03;74.86
37778;BME280;23615;51.506;7.678;2023-02-10T14:59:55;101920.22;;;7.05;75.33
37778;BME280;23615;51.506;7.678;2023-02-10T15:02:26;101912.94;;;7.07;75.50
37778;BME280;23615;51.506;7.678;2023-02-10T15:04:54;101910.22;;;6.99;75.80
37778;BME280;23615;51.506;7.678;2023-02-10T15:07:29;101920.88;;;6.81;76.34
37778;BME280;23615;51.506;7.678;2023-02-10T15:09:57;101920.19;;;6.79;77.12
37778;BME280;23615;51.506;7.678;2023-02-10T15:12:24;101909.25;;;7.00;76.73
37778;BME280;23615;51.506;7.678;2023-02-10T15:17:25;101916.44;;;7.07;76.52
37778;BME280;23615;51.506;7.678;2023-02-10T15:22:32;101925.09;;;6.92;77.56
37778;BME280;23615;51.506;7.678;2023-02-10T15:27:48;101927.19;;;7.06;77.00
37778;BME280;23615;51.506;7.678;2023-02-10T15:30:21;101934.25;;;6.97;77.58
37778;BME280;23615;51.506;7.678;2023-02-10T15:32:49;101935.41;;;6.95;77.01
37778;BME280;23615;51.506;7.678;2023-02-10T15:35:16;101924.41;;;6.90;77.66
37778;BME280;23615;51.506;7.678;2023-02-10T15:37:42;101913.81;;;6.72;77.72
37778;BME280;23615;51.506;7.678;2023-02-10T15:40:19;101914.03;;;6.79;77.50
37778;BME280;23615;51.506;7.678;2023-02-10T15:43:04;101915.03;;;6.60;77.84
37778;BME280;23615;51.506;7.678;2023-02-10T15:45:30;101923.94;;;6.59;77.83
37778;BME280;23615;51.506;7.678;2023-02-10T15:48:06;101917.75;;;6.68;78.43
37778;BME280;23615;51.506;7.678;2023-02-10T15:50:34;101907.53;;;6.55;78.71
37778;BME280;23615;51.506;7.678;2023-02-10T15:53:00;101911.44;;;6.51;78.90
37778;BME280;23615;51.506;7.678;2023-02-10T15:55:32;101899.72;;;6.54;79.32
37778;BME280;23615;51.506;7.678;2023-02-10T15:57:58;101896.09;;;6.55;79.19
37778;BME280;23615;51.506;7.678;2023-02-10T16:00:26;101893.25;;;6.38;79.45
37778;BME280;23615;51.506;7.678;2023-02-10T16:02:52;101892.97;;;6.42;79.45
37778;BME280;23615;51.506;7.678;2023-02-10T16:05:17;101894.41;;;6.54;79.03
37778;BME280;23615;51.506;7.678;2023-02-10T16:07:43;101908.19;;;6.39;79.45
37778;BME280;23615;51.506;7.678;2023-02-10T16:10:17;101900.06;;;6.23;79.94
37778;BME280;23615;51.506;7.678;2023-02-10T16:12:43;101894.25;;;6.10;80.36
37778;BME280;23615;51.506;7.678;2023-02-10T16:15:13;101896.03;;;6.19;80.65
37778;BME280;23615;51.506;7.678;2023-02-10T16:17:41;101889.31;;;6.25;80.02